sensor_id;sensor_type;location;lat;lon;timestamp;pressure;altitude;pressure_sealevel;temperature;humidity
7309;BME280;3695;53.330;9.876;2022-09-09T00:00:18;103011.69;;;14.97;77.32
7309;BME280;3695;53.330;9.876;2022-09-09T00:02:52;103228.09;;;14.99;77.18
7309;BME280;3695;53.330;9.876;2022-09-09T00:05:26;103239.84;;;15.00;77.20
7309;BME280;3695;53.330;9.876;2022-09-09T00:07:59;103259.44;;;15.03;77.15
7309;BME280;3695;53.330;9.876;2022-09-09T00:10:32;103281.38;;;15.10;77.08
7309;BME280;3695;53.330;9.876;2022-09-09T00:13:08;103307.00;;;15.09;77.18
7309;BME280;3695;53.330;9.876;2022-09-09T00:15:45;103231.19;;;14.96;77.50
7309;BME280;3695;53.330;9.876;2022-09-09T00:18:22;103346.09;;;15.09;77.19
7309;BME280;3695;53.330;9.876;2022-09-09T00:20:55;103254.72;;;14.97;77.45
7309;BME280;3695;53.330;9.876;2022-09-09T00:23:25;103301.63;;;15.01;77.31
7309;BME280;3695;53.330;9.876;2022-09-09T00:26:01;103333.28;;;14.95;77.42
7309;BME280;3695;53.330;9.876;2022-09-09T00:28:29;103381.59;;;14.95;77.34
7309;BME280;3695;53.330;9.876;2022-09-09T00:30:59;103387.59;;;14.90;77.43
7309;BME280;3695;53.330;9.876;2022-09-09T00:33:27;103936.72;;;14.97;77.16
7309;BME280;3695;53.330;9.876;2022-09-09T00:35:56;104029.25;;;15.00;77.08
7309;BME280;3695;53.330;9.876;2022-09-09T00:38:27;103953.09;;;14.72;77.63
7309;BME280;3695;53.330;9.876;2022-09-09T00:41:01;104073.97;;;14.91;77.24
7309;BME280;3695;53.330;9.876;2022-09-09T00:43:30;104063.88;;;14.75;77.66
7309;BME280;3695;53.330;9.876;2022-09-09T00:46:16;104032.72;;;14.52;78.17
7309;BME280;3695;53.330;9.876;2022-09-09T00:48:53;104431.03;;;14.45;78.26
7309;BME280;3695;53.330;9.876;2022-09-09T00:51:27;104432.34;;;14.41;78.33
7309;BME280;3695;53.330;9.876;2022-09-09T00:54:28;104386.94;;;14.22;78.42
7309;BME280;3695;53.330;9.876;2022-09-09T00:57:07;104452.28;;;14.24;78.04
7309;BME280;3695;53.330;9.876;2022-09-09T00:59:46;104471.84;;;14.19;77.83
7309;BME280;3695;53.330;9.876;2022-09-09T01:02:17;104452.38;;;14.04;77.86
7309;BME280;3695;53.330;9.876;2022-09-09T01:04:47;104504.06;;;14.06;77.61
7309;BME280;3695;53.330;9.876;2022-09-09T01:07:16;104531.44;;;14.14;77.34
7309;BME280;3695;53.330;9.876;2022-09-09T01:09:51;104610.16;;;14.09;77.37
7309;BME280;3695;53.330;9.876;2022-09-09T01:12:27;104590.06;;;14.10;77.35
7309;BME280;3695;53.330;9.876;2022-09-09T01:15:03;104564.41;;;13.93;77.73
7309;BME280;3695;53.330;9.876;2022-09-09T01:17:32;104560.13;;;13.91;77.68
7309;BME280;3695;53.330;9.876;2022-09-09T01:20:06;104587.66;;;13.97;77.40
7309;BME280;3695;53.330;9.876;2022-09-09T01:22:35;104606.19;;;13.94;77.40
7309;BME280;3695;53.330;9.876;2022-09-09T01:25:18;104657.31;;;13.92;77.48
7309;BME280;3695;53.330;9.876;2022-09-09T01:27:48;104672.38;;;13.96;77.41
7309;BME280;3695;53.330;9.876;2022-09-09T01:30:17;104697.91;;;14.04;77.29
7309;BME280;3695;53.330;9.876;2022-09-09T01:32:45;104716.28;;;14.12;77.17
7309;BME280;3695;53.330;9.876;2022-09-09T01:35:15;104756.22;;;14.23;77.04
7309;BME280;3695;53.330;9.876;2022-09-09T01:37:44;104806.03;;;14.25;77.00
7309;BME280;3695;53.330;9.876;2022-09-09T01:40:11;104782.63;;;14.22;77.12
7309;BME280;3695;53.330;9.876;2022-09-09T01:42:38;104769.97;;;14.11;77.37
7309;BME280;3695;53.330;9.876;2022-09-09T01:45:07;104826.72;;;14.27;77.10
7309;BME280;3695;53.330;9.876;2022-09-09T01:47:34;104826.44;;;14.30;77.12
7309;BME280;3695;53.330;9.876;2022-09-09T01:50:01;104782.63;;;14.03;77.72
7309;BME280;3695;53.330;9.876;2022-09-09T01:52:28;104828.31;;;14.20;77.39
7309;BME280;3695;53.330;9.876;2022-09-09T01:54:55;104847.13;;;14.23;77.30
7309;BME280;3695;53.330;9.876;2022-09-09T01:57:25;104835.63;;;14.20;77.42
7309;BME280;3695;53.330;9.876;2022-09-09T02:00:02;104781.91;;;14.01;77.79
7309;BME280;3695;53.330;9.876;2022-09-09T02:02:35;104812.94;;;14.00;77.80
7309;BME280;3695;53.330;9.876;2022-09-09T02:05:12;104815.22;;;14.04;77.73
7309;BME280;3695;53.330;9.876;2022-09-09T02:07:43;104776.31;;;13.83;78.16
7309;BME280;3695;53.330;9.876;2022-09-09T02:10:20;104791.53;;;13.85;77.95
7309;BME280;3695;53.330;9.876;2022-09-09T02:12:53;104885.72;;;14.09;77.38
7309;BME280;3695;53.330;9.876;2022-09-09T02:15:26;104942.38;;;14.26;77.02
7309;BME280;3695;53.330;9.876;2022-09-09T02:17:58;104852.13;;;13.99;77.63
7309;BME280;3695;53.330;9.876;2022-09-09T02:20:26;104927.34;;;14.01;77.54
7309;BME280;3695;53.330;9.876;2022-09-09T02:22:55;105061.47;;;13.97;77.67
7309;BME280;3695;53.330;9.876;2022-09-09T02:25:25;105147.50;;;14.01;77.57
7309;BME280;3695;53.330;9.876;2022-09-09T02:27:52;105115.38;;;13.83;77.92
7309;BME280;3695;53.330;9.876;2022-09-09T02:30:19;107569.81;;;13.91;77.80
7309;BME280;3695;53.330;9.876;2022-09-09T02:32:48;107799.19;;;13.69;78.30
7309;BME280;3695;53.330;9.876;2022-09-09T02:35:21;107944.91;;;13.65;78.23
7309;BME280;3695;53.330;9.876;2022-09-09T02:37:51;108069.34;;;13.69;78.02
7309;BME280;3695;53.330;9.876;2022-09-09T02:40:19;108179.75;;;13.85;77.59
7309;BME280;3695;53.330;9.876;2022-09-09T02:42:48;108281.66;;;13.85;77.58
7309;BME280;3695;53.330;9.876;2022-09-09T02:45:17;108286.56;;;13.76;77.82
7309;BME280;3695;53.330;9.876;2022-09-09T02:47:50;108283.44;;;13.62;78.30
7309;BME280;3695;53.330;9.876;2022-09-09T02:50:25;108266.63;;;13.49;78.61
7309;BME280;3695;53.330;9.876;2022-09-09T02:53:02;108351.66;;;13.62;78.29
7309;BME280;3695;53.330;9.876;2022-09-09T02:55:38;108366.56;;;13.51;78.61
7309;BME280;3695;53.330;9.876;2022-09-09T02:58:07;108452.69;;;13.60;78.37
7309;BME280;3695;53.330;9.876;2022-09-09T03:00:36;108531.41;;;13.74;78.03
7309;BME280;3695;53.330;9.876;2022-09-09T03:03:03;108507.47;;;13.54;78.64
7309;BME280;3695;53.330;9.876;2022-09-09T03:05:31;108499.44;;;13.49;78.88
7309;BME280;3695;53.330;9.876;2022-09-09T03:07:58;108534.56;;;13.60;78.65
7309;BME280;3695;53.330;9.876;2022-09-09T03:10:24;108516.59;;;13.53;78.86
7309;BME280;3695;53.330;9.876;2022-09-09T03:12:51;108559.19;;;13.59;78.69
7309;BME280;3695;53.330;9.876;2022-09-09T03:15:18;108589.03;;;13.63;78.61
7309;BME280;3695;53.330;9.876;2022-09-09T03:17:44;108630.88;;;13.64;78.64
7309;BME280;3695;53.330;9.876;2022-09-09T03:20:11;108668.84;;;13.71;78.56
7309;BME280;3695;53.330;9.876;2022-09-09T03:22:39;108697.75;;;13.80;78.44
7309;BME280;3695;53.330;9.876;2022-09-09T03:25:06;108707.63;;;13.84;78.38
7309;BME280;3695;53.330;9.876;2022-09-09T03:27:32;108636.53;;;13.58;78.97
7309;BME280;3695;53.330;9.876;2022-09-09T03:29:59;108609.69;;;13.44;79.23
7309;BME280;3695;53.330;9.876;2022-09-09T03:32:29;108597.06;;;13.40;79.32
7309;BME280;3695;53.330;9.876;2022-09-09T03:34:56;108662.09;;;13.55;78.87
7309;BME280;3695;53.330;9.876;2022-09-09T03:37:23;108678.38;;;13.58;78.80
7309;BME280;3695;53.330;9.876;2022-09-09T03:39:50;108677.56;;;13.54;78.93
7309;BME280;3695;53.330;9.876;2022-09-09T03:42:19;108731.88;;;13.64;78.67
7309;BME280;3695;53.330;9.876;2022-09-09T03:44:46;108713.47;;;13.72;78.54
7309;BME280;3695;53.330;9.876;2022-09-09T03:47:15;108691.88;;;13.63;78.74
7309;BME280;3695;53.330;9.876;2022-09-09T03:49:42;108731.66;;;13.71;78.52
7309;BME280;3695;53.330;9.876;2022-09-09T03:52:09;108713.72;;;13.63;78.70
7309;BME280;3695;53.330;9.876;2022-09-09T03:54:35;108682.69;;;13.36;79.27
7309;BME280;3695;53.330;9.876;2022-09-09T03:57:04;108725.72;;;13.57;78.74
7309;BME280;3695;53.330;9.876;2022-09-09T03:59:30;108700.53;;;13.47;78.92
7309;BME280;3695;53.330;9.876;2022-09-09T04:01:57;108765.63;;;13.61;78.54
7309;BME280;3695;53.330;9.876;2022-09-09T04:04:24;108789.16;;;13.65;78.46
7309;BME280;3695;53.330;9.876;2022-09-09T04:06:51;108822.47;;;13.78;78.21
7309;BME280;3695;53.330;9.876;2022-09-09T04:09:17;108863.31;;;13.82;78.03
7309;BME280;3695;53.330;9.876;2022-09-09T04:11:44;108865.19;;;13.80;78.07
7309;BME280;3695;53.330;9.876;2022-09-09T04:14:12;108852.47;;;13.79;78.15
7309;BME280;3695;53.330;9.876;2022-09-09T04:16:39;108833.59;;;13.70;78.33
7309;BME280;3695;53.330;9.876;2022-09-09T04:19:08;108905.19;;;13.81;78.00
7309;BME280;3695;53.330;9.876;2022-09-09T04:21:35;108899.06;;;13.73;78.09
7309;BME280;3695;53.330;9.876;2022-09-09T04:24:02;108944.38;;;13.80;77.84
7309;BME280;3695;53.330;9.876;2022-09-09T04:26:28;108930.88;;;13.74;77.83
7309;BME280;3695;53.330;9.876;2022-09-09T04:28:55;108923.69;;;13.70;77.79
7309;BME280;3695;53.330;9.876;2022-09-09T04:31:22;108907.56;;;13.61;77.92
7309;BME280;3695;53.330;9.876;2022-09-09T04:33:49;108939.44;;;13.59;77.87
7309;BME280;3695;53.330;9.876;2022-09-09T04:36:16;108963.19;;;13.55;77.78
7309;BME280;3695;53.330;9.876;2022-09-09T04:38:44;109024.75;;;13.67;77.49
7309;BME280;3695;53.330;9.876;2022-09-09T04:41:11;108994.00;;;13.61;77.61
7309;BME280;3695;53.330;9.876;2022-09-09T04:43:38;109031.53;;;13.51;77.80
7309;BME280;3695;53.330;9.876;2022-09-09T04:46:05;109031.41;;;13.57;77.65
7309;BME280;3695;53.330;9.876;2022-09-09T04:48:33;109045.03;;;13.57;77.63
7309;BME280;3695;53.330;9.876;2022-09-09T04:51:01;109013.34;;;13.51;77.75
7309;BME280;3695;53.330;9.876;2022-09-09T04:53:29;109049.50;;;13.61;77.52
7309;BME280;3695;53.330;9.876;2022-09-09T04:56:01;109027.03;;;13.50;77.78
7309;BME280;3695;53.330;9.876;2022-09-09T04:58:28;109033.69;;;13.38;77.99
7309;BME280;3695;53.330;9.876;2022-09-09T05:00:54;109068.25;;;13.38;77.93
7309;BME280;3695;53.330;9.876;2022-09-09T05:03:21;109082.66;;;13.44;77.83
7309;BME280;3695;53.330;9.876;2022-09-09T05:05:48;109023.66;;;13.39;77.90
7309;BME280;3695;53.330;9.876;2022-09-09T05:08:15;109015.31;;;13.45;77.73
7309;BME280;3695;53.330;9.876;2022-09-09T05:10:41;108977.81;;;13.53;77.58
7309;BME280;3695;53.330;9.876;2022-09-09T05:13:09;108961.44;;;13.53;77.60
7309;BME280;3695;53.330;9.876;2022-09-09T05:15:36;108942.28;;;13.54;77.56
7309;BME280;3695;53.330;9.876;2022-09-09T05:18:03;109019.16;;;13.75;77.11
7309;BME280;3695;53.330;9.876;2022-09-09T05:20:29;108995.50;;;13.74;77.15
7309;BME280;3695;53.330;9.876;2022-09-09T05:22:58;108941.47;;;13.86;76.94
7309;BME280;3695;53.330;9.876;2022-09-09T05:25:24;108915.78;;;13.94;76.92
7309;BME280;3695;53.330;9.876;2022-09-09T05:27:51;108921.06;;;14.00;76.87
7309;BME280;3695;53.330;9.876;2022-09-09T05:30:19;108864.25;;;13.81;77.36
7309;BME280;3695;53.330;9.876;2022-09-09T05:32:45;108891.91;;;14.00;77.03
7309;BME280;3695;53.330;9.876;2022-09-09T05:35:13;108882.81;;;14.00;77.08
7309;BME280;3695;53.330;9.876;2022-09-09T05:37:39;108866.31;;;14.04;77.12
7309;BME280;3695;53.330;9.876;2022-09-09T05:40:08;108878.78;;;14.13;77.10
7309;BME280;3695;53.330;9.876;2022-09-09T05:42:36;108902.09;;;14.26;76.99
7309;BME280;3695;53.330;9.876;2022-09-09T05:45:02;108908.38;;;14.30;77.08
7309;BME280;3695;53.330;9.876;2022-09-09T05:47:29;108904.59;;;14.34;77.25
7309;BME280;3695;53.330;9.876;2022-09-09T05:49:55;108912.91;;;14.31;77.49
7309;BME280;3695;53.330;9.876;2022-09-09T05:52:22;108936.31;;;14.39;77.50
7309;BME280;3695;53.330;9.876;2022-09-09T05:54:48;108964.34;;;14.47;77.47
7309;BME280;3695;53.330;9.876;2022-09-09T05:57:16;108943.59;;;14.40;77.79
7309;BME280;3695;53.330;9.876;2022-09-09T05:59:44;108967.94;;;14.49;77.64
7309;BME280;3695;53.330;9.876;2022-09-09T06:02:11;108977.94;;;14.51;77.73
7309;BME280;3695;53.330;9.876;2022-09-09T06:04:37;108971.78;;;14.42;77.97
7309;BME280;3695;53.330;9.876;2022-09-09T06:07:04;108962.94;;;14.33;78.20
7309;BME280;3695;53.330;9.876;2022-09-09T06:09:31;108995.47;;;14.42;78.09
7309;BME280;3695;53.330;9.876;2022-09-09T06:11:57;109007.16;;;14.48;78.07
7309;BME280;3695;53.330;9.876;2022-09-09T06:14:25;109042.41;;;14.58;77.89
7309;BME280;3695;53.330;9.876;2022-09-09T06:16:52;109037.84;;;14.58;77.96
7309;BME280;3695;53.330;9.876;2022-09-09T06:19:19;109088.56;;;14.70;77.84
7309;BME280;3695;53.330;9.876;2022-09-09T06:21:45;109035.91;;;14.62;78.16
7309;BME280;3695;53.330;9.876;2022-09-09T06:24:13;109047.66;;;14.67;78.07
7309;BME280;3695;53.330;9.876;2022-09-09T06:26:42;109065.56;;;14.77;77.91
7309;BME280;3695;53.330;9.876;2022-09-09T06:29:10;109055.75;;;14.70;78.18
7309;BME280;3695;53.330;9.876;2022-09-09T06:31:38;109100.94;;;14.83;77.96
7309;BME280;3695;53.330;9.876;2022-09-09T06:34:07;109100.84;;;14.86;78.06
7309;BME280;3695;53.330;9.876;2022-09-09T06:36:36;109116.81;;;15.01;77.81
7309;BME280;3695;53.330;9.876;2022-09-09T06:39:03;109104.31;;;14.93;78.14
7309;BME280;3695;53.330;9.876;2022-09-09T06:41:31;109138.69;;;15.01;78.26
7309;BME280;3695;53.330;9.876;2022-09-09T06:43:58;109154.97;;;15.06;78.33
7309;BME280;3695;53.330;9.876;2022-09-09T06:46:27;109116.81;;;15.01;78.71
7309;BME280;3695;53.330;9.876;2022-09-09T06:48:56;109131.06;;;15.12;78.66
7309;BME280;3695;53.330;9.876;2022-09-09T06:51:27;109103.97;;;15.03;79.10
7309;BME280;3695;53.330;9.876;2022-09-09T06:53:56;109156.56;;;15.15;78.95
7309;BME280;3695;53.330;9.876;2022-09-09T06:56:25;109145.13;;;15.00;79.46
7309;BME280;3695;53.330;9.876;2022-09-09T06:58:54;109189.47;;;15.11;79.40
7309;BME280;3695;53.330;9.876;2022-09-09T07:01:22;109200.34;;;15.15;79.48
7309;BME280;3695;53.330;9.876;2022-09-09T07:03:50;109222.16;;;15.18;79.54
7309;BME280;3695;53.330;9.876;2022-09-09T07:06:19;109248.31;;;15.28;79.46
7309;BME280;3695;53.330;9.876;2022-09-09T07:08:50;109273.91;;;15.27;79.65
7309;BME280;3695;53.330;9.876;2022-09-09T07:11:18;109276.53;;;15.30;79.81
7309;BME280;3695;53.330;9.876;2022-09-09T07:13:45;109310.22;;;15.33;79.84
7309;BME280;3695;53.330;9.876;2022-09-09T07:16:14;109326.50;;;15.38;79.91
7309;BME280;3695;53.330;9.876;2022-09-09T07:18:41;109355.59;;;15.42;79.90
7309;BME280;3695;53.330;9.876;2022-09-09T07:21:09;109420.03;;;15.55;79.76
7309;BME280;3695;53.330;9.876;2022-09-09T07:23:38;109450.81;;;15.66;79.73
7309;BME280;3695;53.330;9.876;2022-09-09T07:26:08;109428.94;;;15.65;79.87
7309;BME280;3695;53.330;9.876;2022-09-09T07:28:34;109408.78;;;15.67;79.92
7309;BME280;3695;53.330;9.876;2022-09-09T07:31:01;109418.75;;;15.70;79.98
7309;BME280;3695;53.330;9.876;2022-09-09T07:33:29;109383.19;;;15.68;80.10
7309;BME280;3695;53.330;9.876;2022-09-09T07:36:02;109425.84;;;15.77;79.96
7309;BME280;3695;53.330;9.876;2022-09-09T07:38:29;109403.69;;;15.86;79.87
7309;BME280;3695;53.330;9.876;2022-09-09T07:41:04;109394.19;;;15.98;79.50
7309;BME280;3695;53.330;9.876;2022-09-09T07:43:31;109470.47;;;16.15;79.18
7309;BME280;3695;53.330;9.876;2022-09-09T07:45:58;109458.69;;;16.11;79.41
7309;BME280;3695;53.330;9.876;2022-09-09T07:48:25;109433.09;;;16.12;79.33
7309;BME280;3695;53.330;9.876;2022-09-09T07:50:51;109461.16;;;16.20;79.23
7309;BME280;3695;53.330;9.876;2022-09-09T07:53:18;109476.38;;;16.30;79.11
7309;BME280;3695;53.330;9.876;2022-09-09T07:55:45;109470.38;;;16.47;78.85
7309;BME280;3695;53.330;9.876;2022-09-09T07:58:12;109510.72;;;16.44;79.15
7309;BME280;3695;53.330;9.876;2022-09-09T08:00:39;109433.94;;;16.44;79.43
7309;BME280;3695;53.330;9.876;2022-09-09T08:03:08;109455.59;;;16.53;79.15
7309;BME280;3695;53.330;9.876;2022-09-09T08:05:35;109402.72;;;16.48;79.42
7309;BME280;3695;53.330;9.876;2022-09-09T08:08:01;109407.75;;;16.63;79.20
7309;BME280;3695;53.330;9.876;2022-09-09T08:10:28;109381.31;;;16.60;79.41
7309;BME280;3695;53.330;9.876;2022-09-09T08:12:55;109379.72;;;16.81;78.90
7309;BME280;3695;53.330;9.876;2022-09-09T08:15:23;109336.72;;;16.82;79.08
7309;BME280;3695;53.330;9.876;2022-09-09T08:17:49;109379.09;;;16.99;78.67
7309;BME280;3695;53.330;9.876;2022-09-09T08:20:16;109377.69;;;17.14;78.43
7309;BME280;3695;53.330;9.876;2022-09-09T08:22:42;109204.00;;;16.84;79.29
7309;BME280;3695;53.330;9.876;2022-09-09T08:25:09;109299.94;;;17.14;78.74
7309;BME280;3695;53.330;9.876;2022-09-09T08:27:35;109108.94;;;16.83;79.65
7309;BME280;3695;53.330;9.876;2022-09-09T08:30:02;109088.25;;;17.21;78.81
7309;BME280;3695;53.330;9.876;2022-09-09T08:32:30;109147.00;;;17.39;78.62
7309;BME280;3695;53.330;9.876;2022-09-09T08:34:57;109085.59;;;17.63;78.07
7309;BME280;3695;53.330;9.876;2022-09-09T08:37:23;108931.66;;;17.45;78.80
7309;BME280;3695;53.330;9.876;2022-09-09T08:39:50;108699.84;;;17.30;79.40
7309;BME280;3695;53.330;9.876;2022-09-09T08:42:33;108783.22;;;17.48;78.97
7309;BME280;3695;53.330;9.876;2022-09-09T08:45:19;108450.06;;;17.65;78.60
7309;BME280;3695;53.330;9.876;2022-09-09T08:48:00;108267.25;;;17.59;78.90
7309;BME280;3695;53.330;9.876;2022-09-09T08:50:32;108108.97;;;17.74;78.82
7309;BME280;3695;53.330;9.876;2022-09-09T08:53:03;107884.16;;;17.82;79.03
7309;BME280;3695;53.330;9.876;2022-09-09T08:55:38;107408.28;;;17.91;79.20
7309;BME280;3695;53.330;9.876;2022-09-09T08:58:12;107033.94;;;18.13;78.82
7309;BME280;3695;53.330;9.876;2022-09-09T09:00:59;106319.00;;;18.09;78.97
7309;BME280;3695;53.330;9.876;2022-09-09T09:03:35;104883.53;;;17.92;79.77
7309;BME280;3695;53.330;9.876;2022-09-09T09:06:09;103324.31;;;17.74;79.92
7309;BME280;3695;53.330;9.876;2022-09-09T09:08:45;102658.22;;;17.71;80.06
7309;BME280;3695;53.330;9.876;2022-09-09T09:11:13;102081.84;;;17.74;80.13
7309;BME280;3695;53.330;9.876;2022-09-09T09:13:44;101791.50;;;17.89;79.92
7309;BME280;3695;53.330;9.876;2022-09-09T09:16:19;101774.31;;;18.05;79.26
7309;BME280;3695;53.330;9.876;2022-09-09T09:18:51;101504.31;;;18.01;78.92
7309;BME280;3695;53.330;9.876;2022-09-09T09:21:21;101570.72;;;18.03;78.41
7309;BME280;3695;53.330;9.876;2022-09-09T09:23:56;101423.44;;;17.87;78.73
7309;BME280;3695;53.330;9.876;2022-09-09T09:26:25;101692.19;;;17.87;78.76
7309;BME280;3695;53.330;9.876;2022-09-09T09:28:56;102068.34;;;18.02;78.51
7309;BME280;3695;53.330;9.876;2022-09-09T09:31:24;101929.00;;;17.81;79.81
7309;BME280;3695;53.330;9.876;2022-09-09T09:33:54;102069.72;;;17.93;79.59
7309;BME280;3695;53.330;9.876;2022-09-09T09:36:24;102219.13;;;17.79;80.87
7309;BME280;3695;53.330;9.876;2022-09-09T09:39:00;103301.88;;;18.31;80.36
7309;BME280;3695;53.330;9.876;2022-09-09T09:41:31;103944.31;;;18.54;80.97
7309;BME280;3695;53.330;9.876;2022-09-09T09:43:59;104141.25;;;18.53;82.75
7309;BME280;3695;53.330;9.876;2022-09-09T09:46:27;104526.19;;;18.67;84.13
7309;BME280;3695;53.330;9.876;2022-09-09T09:48:58;104796.72;;;18.72;85.61
7309;BME280;3695;53.330;9.876;2022-09-09T09:51:26;104915.94;;;18.71;87.72
7309;BME280;3695;53.330;9.876;2022-09-09T09:53:53;105264.19;;;18.71;91.27
7309;BME280;3695;53.330;9.876;2022-09-09T09:56:27;105489.81;;;18.77;93.25
7309;BME280;3695;53.330;9.876;2022-09-09T09:58:55;105311.72;;;18.63;97.42
7309;BME280;3695;53.330;9.876;2022-09-09T10:01:22;105972.88;;;18.86;97.52
7309;BME280;3695;53.330;9.876;2022-09-09T10:03:51;105761.56;;;18.82;96.89
7309;BME280;3695;53.330;9.876;2022-09-09T10:06:29;106442.53;;;18.94;100.00
7309;BME280;3695;53.330;9.876;2022-09-09T10:08:55;106845.78;;;19.08;100.00
7309;BME280;3695;53.330;9.876;2022-09-09T10:11:32;106553.38;;;19.06;100.00
7309;BME280;3695;53.330;9.876;2022-09-09T10:14:14;106433.13;;;18.97;100.00
7309;BME280;3695;53.330;9.876;2022-09-09T10:16:53;105877.06;;;18.82;100.00
7309;BME280;3695;53.330;9.876;2022-09-09T10:19:29;106447.03;;;18.95;100.00
7309;BME280;3695;53.330;9.876;2022-09-09T10:22:04;106889.81;;;19.08;100.00
7309;BME280;3695;53.330;9.876;2022-09-09T10:24:44;106429.22;;;18.99;100.00
7309;BME280;3695;53.330;9.876;2022-09-09T10:31:00;106909.31;;;19.16;100.00
7309;BME280;3695;53.330;9.876;2022-09-09T10:33:36;107396.06;;;19.33;100.00
7309;BME280;3695;53.330;9.876;2022-09-09T10:36:11;108108.59;;;19.58;100.00
7309;BME280;3695;53.330;9.876;2022-09-09T10:38:46;108142.03;;;19.66;100.00
7309;BME280;3695;53.330;9.876;2022-09-09T10:41:18;107319.81;;;19.46;100.00
7309;BME280;3695;53.330;9.876;2022-09-09T10:46:53;108093.59;;;19.76;100.00
7309;BME280;3695;53.330;9.876;2022-09-09T10:49:37;109104.44;;;20.07;100.00
7309;BME280;3695;53.330;9.876;2022-09-09T10:52:17;109119.78;;;20.13;100.00
7309;BME280;3695;53.330;9.876;2022-09-09T10:54:56;107959.66;;;19.74;100.00
7309;BME280;3695;53.330;9.876;2022-09-09T10:57:28;107879.09;;;19.70;100.00
7309;BME280;3695;53.330;9.876;2022-09-09T11:00:05;107848.31;;;19.64;100.00
7309;BME280;3695;53.330;9.876;2022-09-09T11:02:35;107664.84;;;19.61;100.00
7309;BME280;3695;53.330;9.876;2022-09-09T11:05:17;107239.50;;;19.64;100.00
7309;BME280;3695;53.330;9.876;2022-09-09T11:07:56;107629.78;;;19.76;100.00
7309;BME280;3695;53.330;9.876;2022-09-09T11:10:39;107506.53;;;19.78;100.00
7309;BME280;3695;53.330;9.876;2022-09-09T11:13:13;107333.06;;;19.76;100.00
7309;BME280;3695;53.330;9.876;2022-09-09T11:15:46;108250.38;;;20.09;100.00
7309;BME280;3695;53.330;9.876;2022-09-09T11:18:20;108224.34;;;20.13;100.00
7309;BME280;3695;53.330;9.876;2022-09-09T11:20:51;107400.13;;;19.88;100.00
7309;BME280;3695;53.330;9.876;2022-09-09T11:23:25;109586.63;;;20.38;100.00
7309;BME280;3695;53.330;9.876;2022-09-09T11:25:58;109192.88;;;20.22;100.00
7309;BME280;3695;53.330;9.876;2022-09-09T11:28:39;109889.84;;;20.48;100.00
7309;BME280;3695;53.330;9.876;2022-09-09T11:31:34;108967.81;;;20.18;100.00
7309;BME280;3695;53.330;9.876;2022-09-09T11:34:25;110046.47;;;20.42;100.00
7309;BME280;3695;53.330;9.876;2022-09-09T11:37:16;110814.31;;;20.61;100.00
7309;BME280;3695;53.330;9.876;2022-09-09T11:40:30;109735.13;;;20.29;100.00
7309;BME280;3695;53.330;9.876;2022-09-09T11:43:07;109687.25;;;20.30;100.00
7309;BME280;3695;53.330;9.876;2022-09-09T11:45:37;108619.63;;;19.98;100.00
7309;BME280;3695;53.330;9.876;2022-09-09T11:48:23;108724.13;;;20.03;100.00
7309;BME280;3695;53.330;9.876;2022-09-09T11:51:08;108563.13;;;20.05;100.00
7309;BME280;3695;53.330;9.876;2022-09-09T11:53:48;108645.81;;;20.21;100.00
7309;BME280;3695;53.330;9.876;2022-09-09T11:56:26;108816.56;;;20.26;100.00
7309;BME280;3695;53.330;9.876;2022-09-09T11:59:03;107992.19;;;20.21;100.00
7309;BME280;3695;53.330;9.876;2022-09-09T12:01:38;108158.88;;;20.30;100.00
7309;BME280;3695;53.330;9.876;2022-09-09T12:04:26;107418.88;;;20.18;100.00
7309;BME280;3695;53.330;9.876;2022-09-09T12:06:58;106444.16;;;19.96;100.00
7309;BME280;3695;53.330;9.876;2022-09-09T12:09:33;106588.91;;;20.00;100.00
7309;BME280;3695;53.330;9.876;2022-09-09T12:12:06;105572.06;;;19.76;100.00
7309;BME280;3695;53.330;9.876;2022-09-09T12:14:38;104741.19;;;19.55;100.00
7309;BME280;3695;53.330;9.876;2022-09-09T12:17:17;104326.19;;;19.50;100.00
7309;BME280;3695;53.330;9.876;2022-09-09T12:19:45;104069.22;;;19.30;100.00
7309;BME280;3695;53.330;9.876;2022-09-09T12:22:18;103523.59;;;19.18;100.00
7309;BME280;3695;53.330;9.876;2022-09-09T12:24:53;103445.75;;;19.11;100.00
7309;BME280;3695;53.330;9.876;2022-09-09T12:27:27;103121.41;;;18.91;100.00
7309;BME280;3695;53.330;9.876;2022-09-09T12:30:03;102773.75;;;18.82;100.00
7309;BME280;3695;53.330;9.876;2022-09-09T12:33:00;101589.00;;;18.48;100.00
7309;BME280;3695;53.330;9.876;2022-09-09T12:35:30;100200.34;;;17.83;100.00
7309;BME280;3695;53.330;9.876;2022-09-09T12:37:59;100279.56;;;17.65;85.49
7309;BME280;3695;53.330;9.876;2022-09-09T12:40:29;100641.38;;;17.75;76.36
7309;BME280;3695;53.330;9.876;2022-09-09T12:42:58;100712.72;;;17.90;71.72
7309;BME280;3695;53.330;9.876;2022-09-09T12:45:30;100351.66;;;17.65;69.54
7309;BME280;3695;53.330;9.876;2022-09-09T12:48:04;100414.41;;;17.56;67.40
7309;BME280;3695;53.330;9.876;2022-09-09T12:50:34;100566.75;;;17.52;66.11
7309;BME280;3695;53.330;9.876;2022-09-09T12:53:06;100391.97;;;17.70;64.88
7309;BME280;3695;53.330;9.876;2022-09-09T12:55:37;99961.22;;;17.57;64.04
7309;BME280;3695;53.330;9.876;2022-09-09T12:58:06;99877.34;;;17.61;63.28
7309;BME280;3695;53.330;9.876;2022-09-09T13:00:34;100607.31;;;17.55;62.85
7309;BME280;3695;53.330;9.876;2022-09-09T13:03:14;100364.50;;;17.49;62.61
7309;BME280;3695;53.330;9.876;2022-09-09T13:05:42;99907.03;;;17.44;62.52
7309;BME280;3695;53.330;9.876;2022-09-09T13:08:13;99803.53;;;17.41;62.52
7309;BME280;3695;53.330;9.876;2022-09-09T13:10:44;99394.63;;;17.22;62.85
7309;BME280;3695;53.330;9.876;2022-09-09T13:13:13;99373.41;;;17.14;63.01
7309;BME280;3695;53.330;9.876;2022-09-09T13:15:50;99133.63;;;17.13;63.15
7309;BME280;3695;53.330;9.876;2022-09-09T13:18:22;99086.50;;;17.16;63.22
7309;BME280;3695;53.330;9.876;2022-09-09T13:20:50;98847.53;;;17.15;63.35
7309;BME280;3695;53.330;9.876;2022-09-09T13:23:18;98688.78;;;17.15;63.46
7309;BME280;3695;53.330;9.876;2022-09-09T13:25:53;98274.38;;;16.99;63.76
7309;BME280;3695;53.330;9.876;2022-09-09T13:28:22;98313.34;;;17.05;63.72
7309;BME280;3695;53.330;9.876;2022-09-09T13:30:57;98028.47;;;16.97;64.02
7309;BME280;3695;53.330;9.876;2022-09-09T13:33:32;98012.41;;;16.96;64.22
7309;BME280;3695;53.330;9.876;2022-09-09T13:36:01;97942.44;;;16.86;64.36